createdAt,value
2022-12-26T00:02:32.920Z,99844.13
2022-12-26T00:07:34.664Z,99820.84
2022-12-26T00:12:36.271Z,99819.50
2022-12-26T00:17:37.947Z,99831.91
2022-12-26T00:22:39.523Z,99831.41
2022-12-26T00:27:41.097Z,99834.59
2022-12-26T00:32:43.409Z,99839.50
2022-12-26T00:37:45.011Z,99838.66
2022-12-26T00:42:46.740Z,99832.44
2022-12-26T00:47:48.328Z,99830.28
2022-12-26T00:52:49.979Z,99821.91
2022-12-26T00:57:51.620Z,99822.59
2022-12-26T01:02:53.295Z,99811.38
2022-12-26T01:08:23.020Z,99824.59
2022-12-26T01:13:16.972Z,99821.91
2022-12-26T01:18:18.997Z,99823.56
2022-12-26T01:23:20.589Z,99839.31
2022-12-26T01:28:22.270Z,99833.28
2022-12-26T01:33:23.874Z,99820.91
2022-12-26T01:38:25.654Z,99817.38
2022-12-26T01:43:27.215Z,99806.19
2022-12-26T01:48:33.735Z,99823.22
2022-12-26T01:53:42.782Z,99806.81
2022-12-26T01:58:50.987Z,99814.84
2022-12-26T02:04:11.537Z,99811.34
2022-12-26T02:09:13.402Z,99802.31
2022-12-26T02:14:15.252Z,99820.19
2022-12-26T02:19:35.588Z,99824.56
2022-12-26T02:24:46.203Z,99810.16
2022-12-26T02:30:27.934Z,99807.81
2022-12-26T02:36:14.178Z,99822.88
2022-12-26T02:41:31.548Z,99802.81
2022-12-26T02:47:00.037Z,99803.16
2022-12-26T02:52:29.912Z,99803.50
2022-12-26T02:57:55.253Z,99807.47
2022-12-26T03:03:26.588Z,99816.53
2022-12-26T03:08:49.464Z,99805.63
2022-12-26T03:13:51.431Z,99801.75
2022-12-26T03:18:57.934Z,99803.63
2022-12-26T03:24:02.057Z,99789.41
2022-12-26T03:29:22.597Z,99791.94
2022-12-26T03:34:24.500Z,99791.78
2022-12-26T03:39:58.801Z,99789.91
2022-12-26T03:45:24.839Z,99797.78
2022-12-26T03:50:54.538Z,99793.94
2022-12-26T03:56:20.291Z,99792.78
2022-12-26T04:01:42.563Z,99805.13
2022-12-26T04:07:16.530Z,99808.66
2022-12-26T04:12:40.457Z,99805.81
2022-12-26T04:18:06.756Z,99803.16
2022-12-26T04:23:50.263Z,99825.84
2022-12-26T04:29:10.273Z,99836.91
2022-12-26T04:34:39.119Z,99840.94
2022-12-26T04:40:02.198Z,99825.34
2022-12-26T04:45:05.611Z,99810.34
2022-12-26T04:50:13.395Z,99817.47
2022-12-26T04:55:15.236Z,99826.00
2022-12-26T05:00:17.297Z,99825.34
2022-12-26T05:05:37.496Z,99821.47
2022-12-26T05:10:39.896Z,99813.34
2022-12-26T05:16:00.169Z,99808.00
2022-12-26T05:21:21.245Z,99802.94
2022-12-26T05:26:42.360Z,99823.44
2022-12-26T05:31:44.178Z,99796.03
2022-12-26T05:36:51.551Z,99804.38
2022-12-26T05:41:53.278Z,99819.84
2022-12-26T05:46:54.969Z,99818.25
2022-12-26T05:51:56.612Z,99802.25
2022-12-26T05:56:58.259Z,99801.63
2022-12-26T06:02:00.044Z,99803.31
2022-12-26T06:07:02.177Z,99810.16
2022-12-26T06:12:03.742Z,99803.16
2022-12-26T06:17:05.343Z,99817.75
2022-12-26T06:22:06.917Z,99793.88
2022-12-26T06:27:08.629Z,99785.34
2022-12-26T06:32:10.195Z,99783.16
2022-12-26T06:37:11.849Z,99788.19
2022-12-26T06:42:13.409Z,99803.69
2022-12-26T06:47:14.999Z,99807.69
2022-12-26T06:52:16.830Z,99838.06
2022-12-26T06:57:18.412Z,99835.19
2022-12-26T07:02:20.036Z,99843.06
2022-12-26T07:07:21.664Z,99862.53
2022-12-26T07:12:23.316Z,99853.94
2022-12-26T07:17:24.895Z,99861.84
2022-12-26T07:22:26.492Z,99882.19
2022-12-26T07:27:28.103Z,99867.75
2022-12-26T07:32:29.675Z,99867.44
2022-12-26T07:37:31.259Z,99875.16
2022-12-26T07:42:32.855Z,99889.59
2022-12-26T07:47:34.489Z,99883.38
2022-12-26T07:52:36.039Z,99881.53
2022-12-26T07:57:52.768Z,99900.28
2022-12-26T08:02:54.501Z,99900.97
2022-12-26T08:07:56.367Z,99894.06
2022-12-26T08:12:57.945Z,99882.50
2022-12-26T08:17:59.652Z,99897.91
2022-12-26T08:23:02.372Z,99908.97
2022-12-26T08:28:04.066Z,99912.63
2022-12-26T08:33:05.737Z,99900.88
2022-12-26T08:38:07.495Z,99904.00
2022-12-26T08:43:30.317Z,99910.88
2022-12-26T08:48:31.200Z,99882.31
2022-12-26T08:53:35.629Z,99902.81
2022-12-26T08:58:37.709Z,99902.78
2022-12-26T09:03:40.133Z,99907.13
2022-12-26T09:08:42.500Z,99903.94
2022-12-26T09:13:44.930Z,99905.63
2022-12-26T09:18:47.848Z,99905.44
2022-12-26T09:23:51.158Z,99912.97
2022-12-26T09:28:53.384Z,99927.22
2022-12-26T09:33:55.256Z,99919.75
2022-12-26T09:38:58.734Z,99909.06
2022-12-26T09:44:10.108Z,99926.00
2022-12-26T09:49:23.472Z,99914.94
2022-12-26T09:54:54.770Z,99919.31
2022-12-26T09:59:58.591Z,99905.72
2022-12-26T10:05:00.552Z,99899.16
2022-12-26T10:10:15.075Z,99881.34
2022-12-26T10:15:55.187Z,99884.69
2022-12-26T10:21:21.906Z,99892.72
2022-12-26T10:26:27.400Z,99901.13
2022-12-26T10:31:56.333Z,99902.44
2022-12-26T10:37:21.080Z,99892.34
2022-12-26T10:42:33.844Z,99894.31
2022-12-26T10:47:39.325Z,99884.41
2022-12-26T10:52:41.457Z,99876.88
2022-12-26T10:57:44.965Z,99876.06
2022-12-26T11:03:02.619Z,99893.66
2022-12-26T11:08:09.525Z,99894.81
2022-12-26T11:13:19.042Z,99887.22
2022-12-26T11:18:39.361Z,99883.09
2022-12-26T11:23:41.018Z,99881.19
2022-12-26T11:28:43.030Z,99891.13
2022-12-26T11:33:46.231Z,99889.56
2022-12-26T11:38:47.748Z,99886.66
2022-12-26T11:43:51.301Z,99890.88
2022-12-26T11:48:52.969Z,99883.06
2022-12-26T11:54:22.406Z,99859.47
2022-12-26T11:59:24.028Z,99866.91
2022-12-26T12:04:25.599Z,99877.97
2022-12-26T12:09:27.122Z,99881.06
2022-12-26T12:14:39.413Z,99871.03
2022-12-26T12:19:47.407Z,99869.28
2022-12-26T12:25:07.487Z,99861.66
2022-12-26T12:30:20.028Z,99862.16
2022-12-26T12:35:30.298Z,99844.31
2022-12-26T12:40:31.807Z,99851.03
2022-12-26T12:46:05.832Z,99850.03
2022-12-26T12:51:17.572Z,99845.00
2022-12-26T12:56:24.930Z,99842.97
2022-12-26T13:01:33.630Z,99860.47
2022-12-26T13:06:40.610Z,99898.81
2022-12-26T13:11:53.322Z,99971.06
2022-12-26T13:17:19.419Z,99967.81
2022-12-26T13:22:51.540Z,99976.00
2022-12-26T13:27:54.872Z,99967.97
2022-12-26T13:32:56.892Z,99963.44
2022-12-26T13:37:58.677Z,99972.88
2022-12-26T13:43:42.373Z,99962.28
2022-12-26T13:48:43.876Z,99950.75
2022-12-26T13:53:58.601Z,99946.03
2022-12-26T13:59:36.859Z,99950.06
2022-12-26T14:05:12.413Z,99953.75
2022-12-26T14:10:22.824Z,99947.88
2022-12-26T14:16:16.263Z,99944.50
2022-12-26T14:21:36.398Z,99948.38
2022-12-26T14:26:44.122Z,99954.41
2022-12-26T14:32:33.873Z,99942.69
2022-12-26T14:37:49.744Z,99952.41
2022-12-26T14:43:12.793Z,99951.03
2022-12-26T14:48:17.147Z,99964.41
2022-12-26T14:53:24.616Z,99961.38
2022-12-26T14:58:32.085Z,99952.34
2022-12-26T15:03:49.005Z,99966.41
2022-12-26T15:09:02.529Z,99964.91
2022-12-26T15:14:22.250Z,99971.59
2022-12-26T15:20:02.539Z,99975.59
2022-12-26T15:25:36.431Z,99991.53
2022-12-26T15:30:50.296Z,99981.66
2022-12-26T15:36:25.859Z,99987.84
2022-12-26T15:41:40.662Z,100000.22
2022-12-26T15:46:44.426Z,99989.84
2022-12-26T15:52:03.371Z,99997.69
2022-12-26T15:57:13.811Z,99996.00
2022-12-26T16:02:33.353Z,99985.78
2022-12-26T16:08:08.403Z,99987.16
2022-12-26T16:13:12.674Z,99984.97
2022-12-26T16:18:15.465Z,99991.84
2022-12-26T16:23:20.143Z,99999.88
2022-12-26T16:28:38.307Z,100008.28
2022-12-26T16:33:41.485Z,99999.88
2022-12-26T16:38:44.068Z,99993.81
2022-12-26T16:43:45.681Z,99984.75
2022-12-26T16:48:53.551Z,99989.56
2022-12-26T16:53:55.110Z,99986.88
2022-12-26T16:59:05.387Z,99999.91
2022-12-26T17:04:21.110Z,100004.63
2022-12-26T17:09:24.803Z,100004.66
2022-12-26T17:14:35.763Z,100006.88
2022-12-26T17:19:37.645Z,99995.16
2022-12-26T17:24:39.259Z,99981.38
2022-12-26T17:29:49.959Z,99988.56
2022-12-26T17:34:51.567Z,99984.91
2022-12-26T17:40:00.908Z,99984.13
2022-12-26T17:45:04.829Z,99978.56
2022-12-26T17:50:06.459Z,99982.72
2022-12-26T17:55:15.059Z,99978.91
2022-12-26T18:00:22.004Z,99977.72
2022-12-26T18:05:23.666Z,99989.63
2022-12-26T18:10:28.932Z,100000.19
2022-12-26T18:15:31.419Z,99992.03
2022-12-26T18:20:33.057Z,99985.81
2022-12-26T18:25:34.657Z,99979.94
2022-12-26T18:30:36.302Z,99964.38
2022-12-26T18:35:39.634Z,99976.44
2022-12-26T18:40:44.013Z,99980.47
2022-12-26T18:45:45.623Z,99980.31
2022-12-26T18:50:49.056Z,99972.13
2022-12-26T18:55:50.656Z,99964.91
2022-12-26T19:00:52.273Z,99942.63
2022-12-26T19:05:53.898Z,99954.66
2022-12-26T19:10:55.461Z,99941.59
2022-12-26T19:15:57.146Z,99943.09
2022-12-26T19:20:58.842Z,99954.94
2022-12-26T19:26:00.428Z,99957.94
2022-12-26T19:31:28.064Z,99955.94
2022-12-26T19:36:29.688Z,99956.97
2022-12-26T19:41:31.471Z,99969.69
2022-12-26T19:46:33.075Z,99964.13
2022-12-26T19:51:34.727Z,99953.59
2022-12-26T19:56:36.312Z,99966.84
2022-12-26T20:01:38.014Z,99985.91
2022-12-26T20:06:39.916Z,100010.91
2022-12-26T20:11:44.460Z,100023.59
2022-12-26T20:17:08.567Z,100045.94
2022-12-26T20:22:11.649Z,100114.97
2022-12-26T20:27:13.855Z,100133.88
2022-12-26T20:32:15.414Z,100146.25
2022-12-26T20:37:18.057Z,100156.50
2022-12-26T20:42:19.674Z,100165.00
2022-12-26T20:47:21.323Z,100153.41
2022-12-26T20:52:22.935Z,100083.19
2022-12-26T20:57:24.520Z,100060.41
2022-12-26T21:02:26.256Z,100078.41
2022-12-26T21:07:28.099Z,100089.00
2022-12-26T21:12:29.677Z,100124.66
2022-12-26T21:17:31.240Z,100149.44
2022-12-26T21:22:32.899Z,100161.72
2022-12-26T21:27:34.971Z,100165.69
2022-12-26T21:32:36.538Z,100171.44
2022-12-26T21:37:53.508Z,100157.66
2022-12-26T21:42:55.126Z,100179.31
2022-12-26T21:47:56.744Z,100200.72
2022-12-26T21:52:58.400Z,100219.81
2022-12-26T21:58:00.648Z,100236.81
2022-12-26T22:03:21.618Z,100257.53
2022-12-26T22:08:23.313Z,100277.59
2022-12-26T22:13:26.012Z,100288.25
2022-12-26T22:18:27.618Z,100296.66
2022-12-26T22:23:29.222Z,100314.00
2022-12-26T22:28:31.484Z,100331.00
2022-12-26T22:33:33.330Z,100328.78
2022-12-26T22:38:36.101Z,100333.97
2022-12-26T22:43:37.774Z,100342.78
2022-12-26T22:48:39.473Z,100365.78
2022-12-26T22:53:42.331Z,100376.47
2022-12-26T22:58:43.977Z,100382.28
2022-12-26T23:03:46.121Z,100386.38
2022-12-26T23:08:49.425Z,100406.97
2022-12-26T23:13:51.342Z,100420.41
2022-12-26T23:19:14.088Z,100441.81
2022-12-26T23:24:20.074Z,100452.66
2022-12-26T23:29:42.028Z,100448.97
2022-12-26T23:34:43.609Z,100459.22
2022-12-26T23:39:45.255Z,100454.16
2022-12-26T23:44:46.925Z,100467.16
2022-12-26T23:49:48.568Z,100459.50
2022-12-26T23:54:50.127Z,100469.75
2022-12-26T23:59:51.699Z,100471.16
